Time,TemperatureF,DewpointF,PressureIn,WindDirection,WindDirectionDegrees,WindSpeedMPH,WindSpeedGustMPH,Humidity,HourlyPrecipIn,Conditions,Clouds,dailyrainin,SoftwareType,DateUTC
2013-09-24 00:13:00,67.0,54.0,29.79,SE,138,4.0,9.0,63,0.00,,,0.00,,2013-09-24 05:13:00,
2013-09-24 00:20:00,67.0,54.0,29.78,ESE,118,3.0,6.0,64,0.00,,,0.00,,2013-09-24 05:20:00,
2013-09-24 00:22:00,67.0,54.0,29.79,SE,138,4.0,9.0,63,0.00,,,0.00,,2013-09-24 05:22:00,
2013-09-24 00:53:00,67.0,54.0,29.78,ESE,118,3.0,6.0,64,0.00,,,0.00,,2013-09-24 05:53:00,
2013-09-24 01:02:00,67.0,54.0,29.78,ESE,118,3.0,6.0,64,0.00,,,0.00,,2013-09-24 06:02:00,
2013-09-24 01:12:00,67.0,54.0,29.78,ESE,118,3.0,6.0,64,0.00,,,0.00,,2013-09-24 06:12:00,
2013-09-24 01:52:00,66.0,55.0,29.77,ESE,106,3.0,3.0,68,0.00,,,0.00,,2013-09-24 06:52:00,
2013-09-24 02:12:00,65.0,55.0,29.77,ESE,109,1.0,3.0,69,0.00,,,0.00,,2013-09-24 07:12:00,
2013-09-24 02:22:00,65.0,55.0,29.77,ESE,109,1.0,3.0,69,0.00,,,0.00,,2013-09-24 07:22:00,
2013-09-24 02:52:00,64.0,55.0,29.77,SE,135,3.0,5.0,72,0.00,,,0.00,,2013-09-24 07:52:00,
2013-09-24 03:11:00,64.0,55.0,29.76,ESE,123,3.0,6.0,73,0.00,,,0.00,,2013-09-24 08:11:00,
2013-09-24 03:22:00,64.0,55.0,29.76,ESE,123,3.0,6.0,73,0.00,,,0.00,,2013-09-24 08:22:00,
2013-09-24 03:52:00,64.0,56.0,29.75,SSE,163,3.0,7.0,74,0.00,,,0.00,,2013-09-24 08:52:00,
2013-09-24 04:12:00,64.0,56.0,29.75,SE,124,1.0,3.0,74,0.00,,,0.00,,2013-09-24 09:12:00,
2013-09-24 04:21:00,64.0,56.0,29.75,SE,124,1.0,3.0,74,0.00,,,0.00,,2013-09-24 09:21:00,
2013-09-24 04:33:00,64.0,56.0,29.75,SE,124,1.0,3.0,74,0.00,,,0.00,,2013-09-24 09:33:00,
2013-09-24 04:53:00,64.0,56.0,29.74,ESE,122,3.0,4.0,74,0.00,,,0.00,,2013-09-24 09:53:00,
2013-09-24 05:03:00,64.0,56.0,29.74,ESE,122,3.0,4.0,74,0.00,,,0.00,,2013-09-24 10:03:00,
2013-09-24 05:23:00,64.0,56.0,29.75,SE,127,3.0,3.0,74,0.00,,,0.00,,2013-09-24 10:23:00,
2013-09-24 05:33:00,64.0,56.0,29.75,SE,127,3.0,3.0,74,0.00,,,0.00,,2013-09-24 10:33:00,
2013-09-24 05:53:00,63.0,55.0,29.74,ESE,111,3.0,5.0,74,0.00,,,0.00,,2013-09-24 10:53:00,
2013-09-24 06:03:00,63.0,55.0,29.74,ESE,111,3.0,5.0,74,0.00,,,0.00,,2013-09-24 11:03:00,
2013-09-24 06:22:00,63.0,55.0,29.74,ESE,105,2.0,3.0,75,0.00,,,0.00,,2013-09-24 11:22:00,
2013-09-24 06:33:00,63.0,55.0,29.74,ESE,105,2.0,3.0,75,0.00,,,0.00,,2013-09-24 11:33:00,
2013-09-24 06:52:00,63.0,55.0,29.74,ESE,109,2.0,4.0,75,0.00,,,0.00,,2013-09-24 11:52:00,
2013-09-24 07:01:00,63.0,55.0,29.74,ESE,109,2.0,4.0,75,0.00,,,0.00,,2013-09-24 12:01:00,
2013-09-24 07:22:00,63.0,56.0,29.74,ESE,104,1.0,2.0,77,0.00,,,0.00,,2013-09-24 12:22:00,
2013-09-24 07:32:00,63.0,56.0,29.74,ESE,104,1.0,2.0,77,0.00,,,0.00,,2013-09-24 12:32:00,
2013-09-24 07:52:00,62.0,55.0,29.74,ESE,102,0.0,3.0,77,0.00,,,0.00,,2013-09-24 12:52:00,
2013-09-24 08:22:00,62.0,55.0,29.75,ESE,110,2.0,5.0,79,0.00,,,0.00,,2013-09-24 13:22:00,
2013-09-24 08:32:00,62.0,55.0,29.75,ESE,110,2.0,5.0,79,0.00,,,0.00,,2013-09-24 13:32:00,
2013-09-24 08:52:00,62.0,56.0,29.75,ESE,116,1.0,2.0,80,0.00,,,0.00,,2013-09-24 13:52:00,
2013-09-24 09:02:00,62.0,56.0,29.75,ESE,116,1.0,2.0,80,0.00,,,0.00,,2013-09-24 14:02:00,
2013-09-24 09:21:00,62.0,55.0,29.75,SSW,205,1.0,2.0,78,0.00,,,0.00,,2013-09-24 14:21:00,
2013-09-24 09:32:00,62.0,55.0,29.75,SSW,205,1.0,2.0,78,0.00,,,0.00,,2013-09-24 14:32:00,
2013-09-24 09:52:00,63.0,56.0,29.75,ESE,121,1.0,2.0,77,0.00,,,0.00,,2013-09-24 14:52:00,
2013-09-24 10:01:00,63.0,56.0,29.75,ESE,121,1.0,2.0,77,0.00,,,0.00,,2013-09-24 15:01:00,
2013-09-24 10:22:00,64.0,56.0,29.76,NE,41,1.0,3.0,76,0.00,,,0.00,,2013-09-24 15:22:00,
2013-09-24 10:33:00,64.0,56.0,29.76,NE,41,1.0,3.0,76,0.00,,,0.00,,2013-09-24 15:33:00,
2013-09-24 10:53:00,66.0,58.0,29.76,ESE,107,1.0,1.0,75,0.00,,,0.00,,2013-09-24 15:53:00,
2013-09-24 11:03:00,66.0,58.0,29.76,ESE,107,1.0,1.0,75,0.00,,,0.00,,2013-09-24 16:03:00,
2013-09-24 11:23:00,67.0,58.0,29.77,South,181,1.0,1.0,72,0.00,,,0.00,,2013-09-24 16:23:00,
2013-09-24 11:33:00,67.0,58.0,29.77,South,181,1.0,1.0,72,0.00,,,0.00,,2013-09-24 16:33:00,
2013-09-24 11:53:00,66.0,57.0,29.77,East,87,1.0,1.0,73,0.00,,,0.00,,2013-09-24 16:53:00,
2013-09-24 12:02:00,66.0,57.0,29.77,East,87,1.0,1.0,73,0.00,,,0.00,,2013-09-24 17:02:00,
2013-09-24 12:23:00,66.0,58.0,29.78,WSW,247,1.0,1.0,75,0.00,,,0.00,,2013-09-24 17:23:00,
2013-09-24 12:33:00,66.0,58.0,29.78,WSW,247,1.0,1.0,75,0.00,,,0.00,,2013-09-24 17:33:00,
2013-09-24 12:53:00,66.0,58.0,29.78,West,275,1.0,4.0,76,0.00,,,0.00,,2013-09-24 17:53:00,
2013-09-24 13:03:00,66.0,58.0,29.78,West,275,1.0,4.0,76,0.00,,,0.00,,2013-09-24 18:03:00,
2013-09-24 13:22:00,67.0,59.0,29.79,SSW,196,2.0,2.0,75,0.00,,,0.00,,2013-09-24 18:22:00,
2013-09-24 13:32:00,67.0,59.0,29.79,SSW,196,2.0,2.0,75,0.00,,,0.00,,2013-09-24 18:32:00,
2013-09-24 13:52:00,67.0,58.0,29.79,North,358,0.0,1.0,74,0.00,,,0.00,,2013-09-24 18:52:00,
2013-09-24 14:02:00,67.0,58.0,29.79,North,358,0.0,1.0,74,0.00,,,0.00,,2013-09-24 19:02:00,
2013-09-24 14:22:00,66.0,59.0,29.80,North,360,0.0,0.0,77,0.00,,,0.00,,2013-09-24 19:22:00,
2013-09-24 14:32:00,66.0,59.0,29.80,North,360,0.0,0.0,77,0.00,,,0.00,,2013-09-24 19:32:00,
2013-09-24 14:52:00,66.0,59.0,29.80,North,356,2.0,2.0,78,0.00,,,0.00,,2013-09-24 19:52:00,
2013-09-24 15:02:00,66.0,59.0,29.80,North,356,2.0,2.0,78,0.00,,,0.00,,2013-09-24 20:02:00,
2013-09-24 15:22:00,66.0,59.0,29.80,North,351,1.0,3.0,79,0.00,,,0.00,,2013-09-24 20:22:00,
2013-09-24 15:32:00,66.0,59.0,29.80,North,351,1.0,3.0,79,0.00,,,0.00,,2013-09-24 20:32:00,
2013-09-24 15:52:00,65.0,59.0,29.80,North,349,2.0,4.0,82,0.00,,,0.00,,2013-09-24 20:52:00,
2013-09-24 16:02:00,65.0,59.0,29.80,North,349,2.0,4.0,82,0.00,,,0.00,,2013-09-24 21:02:00,
2013-09-24 16:22:00,64.0,59.0,29.80,North,349,0.0,2.0,85,0.00,,,0.00,,2013-09-24 21:22:00,
2013-09-24 16:33:00,64.0,59.0,29.80,North,349,0.0,2.0,85,0.00,,,0.00,,2013-09-24 21:33:00,
2013-09-24 16:54:00,65.0,59.0,29.80,North,351,3.0,3.0,82,0.00,,,0.00,,2013-09-24 21:54:00,
2013-09-24 17:04:00,65.0,59.0,29.80,North,351,3.0,3.0,82,0.00,,,0.00,,2013-09-24 22:04:00,
2013-09-24 17:23:00,66.0,59.0,29.80,North,349,1.0,2.0,79,0.00,,,0.00,,2013-09-24 22:23:00,
2013-09-24 17:34:00,66.0,59.0,29.80,North,349,1.0,2.0,79,0.00,,,0.00,,2013-09-24 22:34:00,
2013-09-24 17:50:00,66.0,60.0,29.81,North,349,1.0,1.0,81,0.00,,,0.00,,2013-09-24 22:50:00,
2013-09-24 17:53:00,65.0,59.0,29.81,North,349,1.0,1.0,80,0.00,,,0.00,,2013-09-24 22:53:00,
2013-09-24 18:03:00,65.0,59.0,29.81,North,349,1.0,1.0,80,0.00,,,0.00,,2013-09-24 23:03:00,
2013-09-24 18:22:00,66.0,60.0,29.81,North,349,1.0,1.0,81,0.00,,,0.00,,2013-09-24 23:22:00,
2013-09-24 18:33:00,66.0,60.0,29.81,North,349,1.0,1.0,81,0.00,,,0.00,,2013-09-24 23:33:00,
2013-09-24 18:43:00,66.0,60.0,29.81,North,349,1.0,1.0,81,0.00,,,0.00,,2013-09-24 23:43:00,
2013-09-24 20:21:00,63.0,57.0,29.81,North,360,0.0,0.0,82,0.00,,,0.00,,2013-09-25 01:21:00,
2013-09-24 20:32:00,63.0,57.0,29.81,North,360,0.0,0.0,82,0.00,,,0.00,,2013-09-25 01:32:00,
2013-09-24 20:52:00,63.0,58.0,29.81,North,360,0.0,0.0,85,0.00,,,0.00,,2013-09-25 01:52:00,
2013-09-24 21:02:00,63.0,58.0,29.81,North,360,0.0,0.0,85,0.00,,,0.00,,2013-09-25 02:02:00,
2013-09-24 21:21:00,62.0,58.0,29.81,NW,326,1.0,1.0,86,0.00,,,0.00,,2013-09-25 02:21:00,
2013-09-24 21:32:00,62.0,58.0,29.81,NW,326,1.0,1.0,86,0.00,,,0.00,,2013-09-25 02:32:00,
2013-09-24 21:52:00,62.0,58.0,29.81,North,360,0.0,0.0,87,0.00,,,0.00,,2013-09-25 02:52:00,
2013-09-24 22:02:00,62.0,58.0,29.81,North,360,0.0,0.0,87,0.00,,,0.00,,2013-09-25 03:02:00,
2013-09-24 22:23:00,62.0,58.0,29.82,North,360,0.0,0.0,87,0.00,,,0.00,,2013-09-25 03:23:00,
2013-09-24 22:34:00,62.0,58.0,29.82,North,360,0.0,0.0,87,0.00,,,0.00,,2013-09-25 03:34:00,
2013-09-24 22:54:00,62.0,58.0,29.82,North,360,0.0,0.0,87,0.00,,,0.00,,2013-09-25 03:54:00,
2013-09-24 23:04:00,62.0,58.0,29.82,North,360,0.0,0.0,87,0.00,,,0.00,,2013-09-25 04:04:00,
2013-09-24 23:14:00,62.0,58.0,29.82,North,360,0.0,0.0,87,0.00,,,0.00,,2013-09-25 04:14:00,
2013-09-24 23:24:00,62.0,58.0,29.82,North,360,0.0,0.0,88,0.00,,,0.00,,2013-09-25 04:24:00,
2013-09-24 23:34:00,62.0,58.0,29.82,North,360,0.0,0.0,88,0.00,,,0.00,,2013-09-25 04:34:00,
2013-09-24 23:54:00,62.0,58.0,29.82,NW,326,0.0,0.0,88,0.00,,,0.00,,2013-09-25 04:54:00,